createdAt,value
2018-02-08T00:01:39.929Z,42.25
2018-02-08T00:04:12.993Z,43.05
2018-02-08T00:06:39.599Z,43.50
2018-02-08T00:09:06.222Z,42.78
2018-02-08T00:11:33.387Z,43.97
2018-02-08T00:13:59.723Z,40.03
2018-02-08T00:16:26.539Z,39.70
2018-02-08T00:18:52.857Z,41.05
2018-02-08T00:21:19.055Z,40.67
2018-02-08T00:23:45.277Z,39.80
2018-02-08T00:26:11.934Z,40.42
2018-02-08T00:28:38.168Z,38.90
2018-02-08T00:31:04.454Z,43.60
2018-02-08T00:33:30.748Z,40.28
2018-02-08T00:35:56.998Z,42.33
2018-02-08T00:38:23.203Z,41.53
2018-02-08T00:40:49.468Z,38.25
2018-02-08T00:43:15.662Z,41.67
2018-02-08T00:45:41.944Z,40.15
2018-02-08T00:48:08.554Z,42.65
2018-02-08T00:50:34.833Z,42.70
2018-02-08T00:53:01.046Z,40.40
2018-02-08T00:55:27.280Z,40.35
2018-02-08T00:57:53.609Z,40.05
2018-02-08T01:00:19.818Z,42.55
2018-02-08T01:02:46.402Z,42.30
2018-02-08T01:05:12.632Z,42.67
2018-02-08T01:07:38.834Z,43.85
2018-02-08T01:10:05.068Z,40.92
2018-02-08T01:12:31.307Z,40.20
2018-02-08T01:14:57.520Z,41.92
2018-02-08T01:17:23.817Z,40.97
2018-02-08T01:19:50.412Z,41.20
2018-02-08T01:22:16.636Z,42.40
2018-02-08T01:24:42.998Z,42.90
2018-02-08T01:27:09.205Z,42.65
2018-02-08T01:29:35.470Z,41.40
2018-02-08T01:32:02.107Z,43.38
2018-02-08T01:34:28.351Z,42.70
2018-02-08T01:36:54.639Z,41.80
2018-02-08T01:39:20.938Z,40.72
2018-02-08T01:41:47.160Z,43.65
2018-02-08T01:44:13.848Z,41.40
2018-02-08T01:46:40.049Z,43.28
2018-02-08T01:49:06.270Z,40.45
2018-02-08T01:51:32.510Z,38.58
2018-02-08T01:53:58.763Z,40.88
2018-02-08T01:56:25.014Z,38.88
2018-02-08T01:58:51.273Z,42.62
2018-02-08T02:01:17.531Z,40.90
2018-02-08T02:03:43.767Z,41.03
2018-02-08T02:06:10.004Z,41.90
2018-02-08T02:08:36.315Z,40.63
2018-02-08T02:11:02.579Z,38.47
2018-02-08T02:13:29.287Z,40.53
2018-02-08T02:15:55.558Z,39.92
2018-02-08T02:18:21.791Z,39.25
2018-02-08T02:20:48.043Z,39.72
2018-02-08T02:23:14.731Z,38.90
2018-02-08T02:25:41.376Z,37.95
2018-02-08T02:28:07.969Z,42.25
2018-02-08T02:30:34.269Z,39.85
2018-02-08T02:33:00.489Z,39.80
2018-02-08T02:35:26.771Z,41.28
2018-02-08T02:37:53.104Z,41.30
2018-02-08T02:40:19.331Z,41.50
2018-02-08T02:42:45.653Z,41.05
2018-02-08T02:45:11.958Z,41.72
2018-02-08T02:47:38.188Z,42.50
2018-02-08T02:50:04.424Z,39.78
2018-02-08T02:52:30.739Z,41.15
2018-02-08T02:54:56.995Z,41.67
2018-02-08T02:57:23.231Z,42.65
2018-02-08T02:59:49.448Z,41.70
2018-02-08T03:02:15.730Z,41.15
2018-02-08T03:04:42.077Z,42.53
2018-02-08T03:07:08.302Z,39.97
2018-02-08T03:09:34.485Z,42.58
2018-02-08T03:12:01.642Z,40.25
2018-02-08T03:14:27.834Z,37.40
2018-02-08T03:16:54.125Z,39.83
2018-02-08T03:19:20.402Z,41.88
2018-02-08T03:21:46.676Z,39.25
2018-02-08T03:24:13.313Z,37.10
2018-02-08T03:26:39.657Z,39.95
2018-02-08T03:29:05.941Z,39.45
2018-02-08T03:31:33.961Z,39.20
2018-02-08T03:34:00.245Z,39.28
2018-02-08T03:36:26.481Z,38.40
2018-02-08T03:38:53.081Z,37.00
2018-02-08T03:41:19.308Z,35.05
2018-02-08T03:43:45.533Z,37.38
2018-02-08T03:46:11.836Z,38.80
2018-02-08T03:48:38.063Z,37.28
2018-02-08T03:51:04.297Z,35.53
2018-02-08T03:53:30.527Z,36.47
2018-02-08T03:55:56.748Z,38.42
2018-02-08T03:58:22.972Z,38.08
2018-02-08T04:00:49.294Z,38.85
2018-02-08T04:03:15.565Z,37.33
2018-02-08T04:05:41.797Z,36.25
2018-02-08T04:08:08.002Z,36.92
2018-02-08T04:10:34.213Z,38.83
2018-02-08T04:13:00.411Z,35.70
2018-02-08T04:15:26.651Z,37.67
2018-02-08T04:17:52.846Z,39.17
2018-02-08T04:20:19.072Z,35.20
2018-02-08T04:22:45.331Z,38.30
2018-02-08T04:25:11.527Z,37.88
2018-02-08T04:27:38.111Z,38.33
2018-02-08T04:30:04.343Z,36.63
2018-02-08T04:32:30.551Z,38.63
2018-02-08T04:34:57.189Z,39.63
2018-02-08T04:37:23.753Z,37.63
2018-02-08T04:40:02.110Z,36.15
2018-02-08T04:42:34.414Z,36.25
2018-02-08T04:45:13.010Z,38.50
2018-02-08T05:01:01.047Z,35.13
2018-02-08T05:03:27.636Z,36.03
2018-02-08T05:05:53.854Z,37.22
2018-02-08T05:08:20.292Z,37.50
2018-02-08T05:10:46.487Z,37.83
2018-02-08T05:13:15.809Z,38.00
2018-02-08T05:15:42.109Z,38.72
2018-02-08T05:18:08.667Z,41.10
2018-02-08T05:20:34.915Z,39.30
2018-02-08T05:23:01.147Z,38.63
2018-02-08T05:25:27.442Z,37.85
2018-02-08T05:27:53.643Z,38.28
2018-02-08T05:30:20.234Z,39.50
2018-02-08T05:32:46.567Z,36.33
2018-02-08T05:35:12.890Z,38.60
2018-02-08T05:37:39.192Z,39.67
2018-02-08T05:40:05.477Z,37.85
2018-02-08T05:42:31.689Z,38.45
2018-02-08T05:44:57.956Z,40.58
2018-02-08T05:47:24.360Z,39.25
2018-02-08T05:49:50.564Z,37.85
2018-02-08T05:52:16.840Z,40.08
2018-02-08T05:54:43.155Z,38.28
2018-02-08T05:57:09.417Z,38.05
2018-02-08T05:59:36.029Z,37.47
2018-02-08T06:02:02.310Z,37.10
2018-02-08T06:04:28.511Z,36.10
2018-02-08T06:06:55.554Z,37.28
2018-02-08T06:09:22.211Z,38.88
2018-02-08T06:11:48.500Z,37.75
2018-02-08T06:14:14.985Z,38.92
2018-02-08T06:16:41.172Z,39.28
2018-02-08T06:19:07.412Z,38.70
2018-02-08T06:21:33.765Z,38.28
2018-02-08T06:23:59.954Z,39.28
2018-02-08T06:26:26.196Z,39.50
2018-02-08T06:28:52.839Z,38.55
2018-02-08T06:31:19.485Z,37.10
2018-02-08T06:33:45.726Z,38.42
2018-02-08T06:36:11.962Z,39.92
2018-02-08T06:38:38.227Z,37.80
2018-02-08T06:41:04.497Z,38.72
2018-02-08T06:43:30.813Z,38.72
2018-02-08T06:45:57.421Z,39.20
2018-02-08T06:48:23.657Z,36.45
2018-02-08T06:50:49.901Z,38.08
2018-02-08T06:53:16.585Z,37.20
2018-02-08T06:55:42.819Z,40.63
2018-02-08T06:58:09.089Z,37.45
2018-02-08T07:00:35.287Z,38.80
2018-02-08T07:03:01.577Z,40.53
2018-02-08T07:05:27.832Z,41.78
2018-02-08T07:07:54.103Z,37.53
2018-02-08T07:10:20.747Z,39.33
2018-02-08T07:12:47.352Z,37.20
2018-02-08T07:15:13.675Z,36.67
2018-02-08T07:17:39.883Z,38.97
2018-02-08T07:20:06.457Z,39.10
2018-02-08T07:22:32.659Z,39.03
2018-02-08T07:24:58.868Z,37.38
2018-02-08T07:27:25.104Z,38.75
2018-02-08T07:29:51.324Z,38.90
2018-02-08T07:32:17.593Z,38.70
2018-02-08T07:34:43.965Z,38.20
2018-02-08T07:37:10.182Z,39.00
2018-02-08T07:39:36.390Z,37.47
2018-02-08T07:42:02.635Z,37.88
2018-02-08T07:44:29.150Z,39.40
2018-02-08T07:46:55.336Z,36.83
2018-02-08T07:49:21.594Z,39.13
2018-02-08T07:51:47.817Z,37.22
2018-02-08T07:54:14.050Z,39.05
2018-02-08T07:56:40.277Z,37.47
2018-02-08T07:59:06.514Z,39.83
2018-02-08T08:01:32.781Z,38.42
2018-02-08T08:03:59.066Z,39.05
2018-02-08T08:06:25.348Z,38.97
2018-02-08T08:08:51.672Z,37.40
2018-02-08T08:11:17.898Z,36.25
2018-02-08T08:13:44.906Z,40.17
2018-02-08T08:16:11.178Z,37.83
2018-02-08T08:18:37.430Z,39.17
2018-02-08T08:21:03.736Z,38.38
2018-02-08T08:23:29.953Z,39.63
2018-02-08T08:25:56.188Z,35.47
2018-02-08T08:28:22.421Z,37.97
2018-02-08T08:30:48.688Z,38.92
2018-02-08T08:33:14.974Z,36.88
2018-02-08T08:35:41.252Z,41.28
2018-02-08T08:38:07.503Z,37.08
2018-02-08T08:40:33.728Z,38.67
2018-02-08T08:42:59.986Z,35.78
2018-02-08T08:45:26.188Z,38.30
2018-02-08T08:47:52.413Z,38.45
2018-02-08T08:50:18.662Z,38.80
2018-02-08T08:52:44.933Z,38.55
2018-02-08T08:55:11.149Z,36.40
2018-02-08T08:57:37.419Z,37.83
2018-02-08T09:00:03.733Z,36.47
2018-02-08T09:02:29.960Z,40.08
2018-02-08T09:04:56.229Z,36.78
2018-02-08T09:07:22.432Z,38.25
2018-02-08T09:09:48.929Z,39.13
2018-02-08T09:12:15.242Z,38.67
2018-02-08T09:14:42.333Z,39.10
2018-02-08T09:17:08.919Z,35.90
2018-02-08T09:19:35.154Z,39.05
2018-02-08T09:22:01.450Z,39.65
2018-02-08T09:24:27.712Z,40.30
2018-02-08T09:26:53.995Z,40.47
2018-02-08T09:29:20.241Z,36.60
2018-02-08T09:31:46.932Z,37.80
2018-02-08T09:34:13.257Z,37.60
2018-02-08T09:36:39.529Z,37.88
2018-02-08T09:39:06.206Z,40.17
2018-02-08T09:41:32.452Z,38.13
2018-02-08T09:43:58.688Z,37.35
2018-02-08T09:46:24.998Z,40.08
2018-02-08T09:48:51.265Z,39.75
2018-02-08T09:51:17.575Z,39.88
2018-02-08T09:53:43.839Z,38.50
2018-02-08T09:56:10.071Z,40.80
2018-02-08T09:58:36.327Z,38.97
2018-02-08T10:01:02.613Z,39.10
2018-02-08T10:03:28.880Z,36.75
2018-02-08T10:05:55.473Z,38.60
2018-02-08T10:08:21.769Z,41.15
2018-02-08T10:10:48.087Z,39.17
2018-02-08T10:13:14.321Z,43.25
2018-02-08T10:15:40.601Z,38.65
2018-02-08T10:18:07.240Z,38.20
2018-02-08T10:20:33.484Z,42.83
2018-02-08T10:23:00.185Z,42.00
2018-02-08T10:25:26.531Z,40.75
2018-02-08T10:27:52.823Z,40.35
2018-02-08T10:30:19.153Z,40.45
2018-02-08T10:32:45.446Z,40.80
2018-02-08T10:35:12.500Z,41.22
2018-02-08T10:37:39.187Z,41.88
2018-02-08T10:40:05.454Z,43.42
2018-02-08T10:42:31.661Z,40.25
2018-02-08T10:44:57.946Z,42.47
2018-02-08T10:47:24.176Z,40.85
2018-02-08T10:49:50.436Z,40.60
2018-02-08T10:52:16.690Z,42.45
2018-02-08T10:54:42.930Z,42.78
2018-02-08T10:57:09.522Z,41.78
2018-02-08T10:59:35.739Z,42.38
2018-02-08T11:02:01.989Z,38.83
2018-02-08T11:04:31.322Z,42.45
2018-02-08T11:06:57.996Z,40.78
2018-02-08T11:09:24.535Z,42.13
2018-02-08T11:11:50.933Z,41.95
2018-02-08T11:14:17.296Z,43.05
2018-02-08T11:16:43.526Z,41.45
2018-02-08T11:19:10.299Z,41.70
2018-02-08T11:21:36.492Z,40.30
2018-02-08T11:24:02.730Z,38.30
2018-02-08T11:26:29.431Z,40.88
2018-02-08T11:28:56.083Z,38.60
2018-02-08T11:31:22.328Z,41.95
2018-02-08T11:33:49.134Z,39.72
2018-02-08T11:36:15.921Z,41.47
2018-02-08T11:38:42.152Z,42.40
2018-02-08T11:41:08.757Z,39.30
2018-02-08T11:43:35.046Z,41.08
2018-02-08T11:46:01.524Z,41.55
2018-02-08T11:48:30.831Z,39.50
2018-02-08T11:50:57.129Z,41.45
2018-02-08T11:53:24.154Z,40.60
2018-02-08T11:55:50.665Z,42.42
2018-02-08T11:58:16.918Z,43.03
2018-02-08T12:00:43.167Z,42.40
2018-02-08T12:03:09.857Z,40.20
2018-02-08T12:05:36.171Z,40.45
2018-02-08T12:08:02.489Z,41.80
2018-02-08T12:10:29.229Z,40.25
2018-02-08T12:12:55.554Z,41.22
2018-02-08T12:15:21.817Z,40.53
2018-02-08T12:17:48.090Z,39.65
2018-02-08T12:20:14.333Z,40.28
2018-02-08T12:22:40.603Z,40.10
2018-02-08T12:25:06.878Z,41.33
2018-02-08T12:27:33.503Z,36.60
2018-02-08T12:29:59.845Z,39.35
2018-02-08T12:32:26.674Z,41.40
2018-02-08T12:34:52.980Z,46.08
2018-02-08T12:37:19.706Z,43.70
2018-02-08T12:39:46.660Z,43.08
2018-02-08T12:42:12.981Z,40.28
2018-02-08T12:44:39.298Z,41.78
2018-02-08T12:47:05.688Z,40.78
2018-02-08T12:49:33.030Z,42.33
2018-02-08T12:51:59.282Z,38.22
2018-02-08T12:54:25.900Z,38.28
2018-02-08T12:56:52.168Z,37.47
2018-02-08T12:59:18.770Z,40.25
2018-02-08T13:01:45.138Z,40.12
2018-02-08T13:04:11.423Z,38.47
2018-02-08T13:06:37.679Z,38.20
2018-02-08T13:09:04.670Z,36.92
2018-02-08T13:11:30.978Z,35.83
2018-02-08T13:13:57.295Z,39.17
2018-02-08T13:16:23.621Z,39.40
2018-02-08T13:18:50.278Z,40.60
2018-02-08T13:21:16.637Z,41.20
2018-02-08T13:23:43.165Z,43.17
2018-02-08T13:26:09.402Z,39.97
2018-02-08T13:28:35.702Z,42.17
2018-02-08T13:31:02.266Z,39.13
2018-02-08T13:33:28.604Z,42.30
2018-02-08T13:35:55.003Z,39.75
2018-02-08T13:38:21.418Z,37.85
2018-02-08T13:40:47.738Z,35.95
2018-02-08T13:43:14.426Z,39.35
2018-02-08T13:45:47.738Z,42.55
2018-02-08T13:48:26.079Z,38.90
2018-02-08T13:51:06.389Z,40.67
2018-02-08T13:53:47.555Z,37.33
2018-02-08T13:56:21.732Z,39.58
2018-02-08T13:59:03.251Z,36.70
2018-02-08T14:01:45.975Z,39.35
2018-02-08T14:04:12.329Z,38.72
2018-02-08T14:06:38.666Z,37.22
2018-02-08T14:09:05.071Z,35.35
2018-02-08T14:11:31.410Z,38.05
2018-02-08T14:13:57.684Z,37.88
2018-02-08T14:16:24.138Z,36.70
2018-02-08T14:18:50.490Z,39.28
2018-02-08T14:21:17.005Z,36.40
2018-02-08T14:23:43.292Z,39.03
2018-02-08T14:26:09.511Z,38.10
2018-02-08T14:28:38.446Z,39.38
2018-02-08T14:31:04.696Z,37.35
2018-02-08T14:33:30.929Z,36.63
2018-02-08T14:35:57.590Z,35.90
2018-02-08T14:38:24.565Z,36.75
2018-02-08T14:40:50.860Z,36.75
2018-02-08T14:43:17.220Z,36.88
2018-02-08T14:45:43.475Z,39.65
2018-02-08T14:48:09.697Z,37.55
2018-02-08T14:50:36.016Z,36.97
2018-02-08T14:53:02.308Z,36.85
2018-02-08T14:55:28.590Z,37.42
2018-02-08T14:57:54.870Z,36.90
2018-02-08T15:00:21.147Z,38.60
2018-02-08T15:02:47.909Z,37.38
2018-02-08T15:05:14.202Z,37.47
2018-02-08T15:07:40.924Z,39.70
2018-02-08T15:10:07.393Z,37.25
2018-02-08T15:12:33.678Z,36.80
2018-02-08T15:15:01.156Z,35.63
2018-02-08T15:17:27.738Z,36.00
2018-02-08T15:19:53.991Z,36.53
2018-02-08T15:22:20.261Z,36.05
2018-02-08T15:24:46.561Z,33.58
2018-02-08T15:27:12.857Z,37.15
2018-02-08T15:29:39.130Z,36.20
2018-02-08T15:32:05.876Z,34.88
2018-02-08T15:34:32.182Z,34.90
2018-02-08T15:36:58.445Z,35.85
2018-02-08T15:39:25.048Z,35.13
2018-02-08T15:41:51.649Z,34.10
2018-02-08T15:44:17.945Z,35.60
2018-02-08T15:46:44.619Z,33.70
2018-02-08T15:49:10.912Z,35.85
2018-02-08T15:51:37.181Z,34.78
2018-02-08T15:54:03.450Z,36.20
2018-02-08T15:56:29.753Z,35.28
2018-02-08T15:58:56.021Z,36.22
2018-02-08T16:01:22.286Z,38.35
2018-02-08T16:03:48.537Z,36.90
2018-02-08T16:06:14.825Z,34.83
2018-02-08T16:08:41.081Z,32.42
2018-02-08T16:11:07.335Z,36.72
2018-02-08T16:13:33.730Z,34.85
2018-02-08T16:16:00.010Z,34.47
2018-02-08T16:18:26.285Z,34.83
2018-02-08T16:20:52.555Z,34.15
2018-02-08T16:23:18.795Z,32.92
2018-02-08T16:25:45.115Z,35.15
2018-02-08T16:28:11.347Z,35.22
2018-02-08T16:30:37.609Z,34.63
2018-02-08T16:33:05.066Z,34.08
2018-02-08T16:35:31.734Z,33.78
2018-02-08T16:37:57.977Z,34.55
2018-02-08T16:40:24.243Z,32.53
2018-02-08T16:42:50.514Z,34.28
2018-02-08T16:45:16.867Z,31.58
2018-02-08T16:47:43.150Z,33.70
2018-02-08T16:50:09.797Z,32.28
2018-02-08T16:52:36.392Z,33.67
2018-02-08T16:55:02.727Z,34.45
2018-02-08T16:57:29.004Z,35.10
2018-02-08T16:59:55.268Z,33.88
2018-02-08T17:02:21.561Z,33.85
2018-02-08T17:04:47.918Z,33.42
2018-02-08T17:07:14.213Z,33.38
2018-02-08T17:09:40.526Z,32.03
2018-02-08T17:12:06.739Z,32.95
2018-02-08T17:14:33.031Z,31.45
2018-02-08T17:16:59.319Z,33.70
2018-02-08T17:19:25.978Z,33.60
2018-02-08T17:21:52.291Z,30.73
2018-02-08T17:24:18.925Z,34.53
2018-02-08T17:26:45.729Z,33.35
2018-02-08T17:29:11.982Z,34.63
2018-02-08T17:31:38.280Z,35.00
2018-02-08T17:34:04.537Z,34.17
2018-02-08T17:36:30.800Z,32.95
2018-02-08T17:38:57.273Z,36.78
2018-02-08T17:41:23.520Z,40.28
2018-02-08T17:43:49.849Z,41.40
2018-02-08T17:46:16.182Z,45.95
2018-02-08T17:48:42.433Z,47.40
2018-02-08T17:51:08.724Z,44.95
2018-02-08T17:53:34.984Z,42.62
2018-02-08T17:56:01.351Z,37.65
2018-02-08T17:58:27.631Z,35.45
2018-02-08T18:00:53.948Z,40.12
2018-02-08T18:03:20.258Z,39.25
2018-02-08T18:05:46.551Z,39.08
2018-02-08T18:08:12.917Z,37.20
2018-02-08T18:10:39.272Z,39.05
2018-02-08T18:13:05.523Z,38.00
2018-02-08T18:15:31.792Z,39.40
2018-02-08T18:17:58.094Z,38.80
2018-02-08T18:20:24.364Z,36.88
2018-02-08T18:22:50.686Z,39.00
2018-02-08T18:25:17.031Z,37.83
2018-02-08T18:27:43.463Z,37.30
2018-02-08T18:30:09.827Z,39.38
2018-02-08T18:32:36.093Z,44.05
2018-02-08T18:35:02.757Z,44.50
2018-02-08T18:37:29.094Z,43.97
2018-02-08T18:39:55.450Z,49.35
2018-02-08T18:42:21.775Z,40.85
2018-02-08T18:44:48.028Z,38.53
2018-02-08T18:47:14.694Z,38.72
2018-02-08T18:49:41.002Z,38.42
2018-02-08T18:52:08.297Z,41.75
2018-02-08T18:54:34.545Z,39.80
2018-02-08T18:57:00.813Z,41.63
2018-02-08T18:59:27.121Z,40.90
2018-02-08T19:01:53.432Z,40.25
2018-02-08T19:04:19.788Z,42.28
2018-02-08T19:06:46.122Z,40.42
2018-02-08T19:09:12.528Z,40.17
2018-02-08T19:11:38.889Z,41.10
2018-02-08T19:14:05.633Z,39.58
2018-02-08T19:16:32.348Z,37.85
2018-02-08T19:18:58.742Z,38.80
2018-02-08T19:21:25.041Z,41.47
2018-02-08T19:23:51.786Z,39.53
2018-02-08T19:26:18.429Z,40.78
2018-02-08T19:28:44.723Z,40.80
2018-02-08T19:31:10.974Z,41.90
2018-02-08T19:33:37.674Z,41.47
2018-02-08T19:36:04.628Z,39.85
2018-02-08T19:38:31.007Z,40.15
2018-02-08T19:40:58.199Z,39.97
2018-02-08T19:43:24.580Z,40.90
2018-02-08T19:45:51.276Z,38.70
2018-02-08T19:48:18.236Z,39.47
2018-02-08T19:50:44.498Z,39.55
2018-02-08T19:53:10.787Z,41.58
2018-02-08T19:55:37.078Z,41.58
2018-02-08T19:58:03.367Z,41.72
2018-02-08T20:00:29.664Z,40.72
2018-02-08T20:02:55.963Z,40.75
2018-02-08T20:05:22.284Z,39.40
2018-02-08T20:07:50.012Z,39.85
2018-02-08T20:10:16.372Z,41.78
2018-02-08T20:12:43.613Z,38.55
2018-02-08T20:15:10.327Z,40.30
2018-02-08T20:17:36.709Z,39.13
2018-02-08T20:20:03.039Z,40.92
2018-02-08T20:22:29.375Z,42.83
2018-02-08T20:24:56.022Z,40.28
2018-02-08T20:27:22.308Z,42.25
2018-02-08T20:29:49.013Z,40.85
2018-02-08T20:32:15.454Z,42.72
2018-02-08T20:34:41.836Z,42.75
2018-02-08T20:37:08.114Z,40.28
2018-02-08T20:39:34.768Z,44.78
2018-02-08T20:42:01.378Z,41.08
2018-02-08T20:44:27.747Z,41.80
2018-02-08T20:46:54.379Z,42.38
2018-02-08T20:49:20.667Z,47.67
2018-02-08T20:51:47.015Z,45.25
2018-02-08T20:54:13.423Z,44.38
2018-02-08T20:56:39.734Z,46.15
2018-02-08T20:59:06.451Z,44.25
2018-02-08T21:01:32.704Z,43.20
2018-02-08T21:03:59.037Z,45.75
2018-02-08T21:06:25.282Z,44.55
2018-02-08T21:08:51.539Z,45.88
2018-02-08T21:11:17.836Z,45.95
2018-02-08T21:13:44.103Z,44.22
2018-02-08T21:16:10.404Z,45.85
2018-02-08T21:18:36.712Z,44.95
2018-02-08T21:21:03.047Z,43.28
2018-02-08T21:23:29.319Z,44.63
2018-02-08T21:25:55.640Z,47.10
2018-02-08T21:28:21.901Z,42.92
2018-02-08T21:30:48.206Z,45.53
2018-02-08T21:33:15.282Z,47.40
2018-02-08T21:35:42.016Z,45.97
2018-02-08T21:38:08.707Z,46.42
2018-02-08T21:40:35.019Z,45.47
2018-02-08T21:43:01.277Z,47.38
2018-02-08T21:45:27.543Z,48.03
2018-02-08T21:47:53.800Z,47.95
2018-02-08T21:50:20.121Z,46.37
2018-02-08T21:52:46.530Z,46.33
2018-02-08T21:55:13.129Z,47.85
2018-02-08T21:57:40.234Z,44.72
2018-02-08T22:00:06.519Z,44.92
2018-02-08T22:02:32.825Z,45.65
2018-02-08T22:04:59.155Z,44.08
2018-02-08T22:07:25.386Z,44.30
2018-02-08T22:09:51.702Z,45.70
2018-02-08T22:12:17.974Z,43.75
2018-02-08T22:14:44.250Z,46.13
2018-02-08T22:17:10.467Z,45.53
2018-02-08T22:19:36.717Z,48.08
2018-02-08T22:22:02.967Z,45.92
2018-02-08T22:24:29.216Z,46.53
2018-02-08T22:26:55.470Z,45.97
2018-02-08T22:29:21.740Z,44.53
2018-02-08T22:31:47.964Z,44.25
2018-02-08T22:34:14.276Z,45.63
2018-02-08T22:36:41.001Z,46.35
2018-02-08T22:39:07.211Z,45.97
2018-02-08T22:41:33.490Z,43.83
2018-02-08T22:44:00.169Z,46.45
2018-02-08T22:46:26.440Z,46.95
2018-02-08T22:48:52.656Z,47.40
2018-02-08T22:51:18.907Z,45.03
2018-02-08T22:53:45.747Z,45.40
2018-02-08T22:56:12.039Z,47.30
2018-02-08T22:58:38.272Z,44.78
2018-02-08T23:01:04.936Z,46.83
2018-02-08T23:03:31.212Z,46.37
2018-02-08T23:05:57.475Z,44.72
2018-02-08T23:08:24.065Z,42.88
2018-02-08T23:10:50.315Z,46.40
2018-02-08T23:13:17.394Z,43.05
2018-02-08T23:15:43.660Z,44.15
2018-02-08T23:18:09.940Z,46.50
2018-02-08T23:20:36.499Z,45.30
2018-02-08T23:23:02.760Z,45.20
2018-02-08T23:25:29.050Z,43.15
2018-02-08T23:27:55.298Z,43.00
2018-02-08T23:30:21.559Z,43.95
2018-02-08T23:32:47.783Z,42.97
2018-02-08T23:35:14.051Z,44.17
2018-02-08T23:37:40.309Z,44.70
2018-02-08T23:40:06.568Z,44.72
2018-02-08T23:42:32.880Z,44.97
2018-02-08T23:44:59.091Z,43.65
2018-02-08T23:47:25.413Z,44.22
2018-02-08T23:49:51.665Z,42.08
2018-02-08T23:52:18.743Z,44.33
2018-02-08T23:54:45.000Z,45.85
2018-02-08T23:57:11.676Z,44.30
2018-02-08T23:59:37.918Z,41.47
